sensor_id;sensor_type;location;lat;lon;timestamp;P1;durP1;ratioP1;P2;durP2;ratioP2
61036;SDS011;57313;47.040;15.498;2022-10-10T00:01:00;9.85;;;3.30;;
61036;SDS011;57313;47.040;15.498;2022-10-10T00:03:30;8.43;;;3.00;;
61036;SDS011;57313;47.040;15.498;2022-10-10T00:05:57;8.93;;;3.42;;
61036;SDS011;57313;47.040;15.498;2022-10-10T00:08:25;8.50;;;2.78;;
61036;SDS011;57313;47.040;15.498;2022-10-10T00:10:53;6.95;;;2.47;;
61036;SDS011;57313;47.040;15.498;2022-10-10T00:13:21;7.55;;;2.85;;
61036;SDS011;57313;47.040;15.498;2022-10-10T00:15:48;7.05;;;2.75;;
61036;SDS011;57313;47.040;15.498;2022-10-10T00:18:16;7.90;;;2.88;;
61036;SDS011;57313;47.040;15.498;2022-10-10T00:20:47;7.40;;;2.60;;
61036;SDS011;57313;47.040;15.498;2022-10-10T00:23:16;6.57;;;2.72;;
61036;SDS011;57313;47.040;15.498;2022-10-10T00:25:44;7.55;;;2.80;;
61036;SDS011;57313;47.040;15.498;2022-10-10T00:28:12;8.13;;;3.38;;
61036;SDS011;57313;47.040;15.498;2022-10-10T00:30:40;13.05;;;2.50;;
61036;SDS011;57313;47.040;15.498;2022-10-10T00:33:08;14.68;;;3.00;;
61036;SDS011;57313;47.040;15.498;2022-10-10T00:35:35;7.18;;;2.88;;
61036;SDS011;57313;47.040;15.498;2022-10-10T00:38:07;7.20;;;2.70;;
61036;SDS011;57313;47.040;15.498;2022-10-10T00:40:36;7.05;;;2.80;;
61036;SDS011;57313;47.040;15.498;2022-10-10T00:43:12;7.32;;;2.53;;
61036;SDS011;57313;47.040;15.498;2022-10-10T00:45:41;9.50;;;2.55;;
61036;SDS011;57313;47.040;15.498;2022-10-10T00:48:11;7.25;;;2.63;;
61036;SDS011;57313;47.040;15.498;2022-10-10T00:50:42;7.53;;;2.47;;
61036;SDS011;57313;47.040;15.498;2022-10-10T00:53:17;6.95;;;2.60;;
61036;SDS011;57313;47.040;15.498;2022-10-10T00:55:47;6.75;;;2.58;;
61036;SDS011;57313;47.040;15.498;2022-10-10T00:58:15;9.50;;;2.40;;
61036;SDS011;57313;47.040;15.498;2022-10-10T01:00:44;10.07;;;3.05;;
61036;SDS011;57313;47.040;15.498;2022-10-10T01:03:12;10.35;;;2.70;;
61036;SDS011;57313;47.040;15.498;2022-10-10T01:05:39;6.90;;;2.35;;
61036;SDS011;57313;47.040;15.498;2022-10-10T01:08:09;8.30;;;3.00;;
61036;SDS011;57313;47.040;15.498;2022-10-10T01:10:40;8.20;;;3.00;;
61036;SDS011;57313;47.040;15.498;2022-10-10T01:13:25;9.73;;;2.40;;
61036;SDS011;57313;47.040;15.498;2022-10-10T01:16:00;5.20;;;1.90;;
61036;SDS011;57313;47.040;15.498;2022-10-10T01:18:35;6.70;;;2.63;;
61036;SDS011;57313;47.040;15.498;2022-10-10T01:21:19;6.07;;;2.28;;
61036;SDS011;57313;47.040;15.498;2022-10-10T01:24:00;6.35;;;1.95;;
61036;SDS011;57313;47.040;15.498;2022-10-10T01:29:59;5.25;;;2.00;;
61036;SDS011;57313;47.040;15.498;2022-10-10T01:32:31;7.57;;;1.77;;
61036;SDS011;57313;47.040;15.498;2022-10-10T01:35:12;9.10;;;2.15;;
61036;SDS011;57313;47.040;15.498;2022-10-10T01:37:48;6.10;;;2.28;;
61036;SDS011;57313;47.040;15.498;2022-10-10T01:40:26;6.38;;;2.35;;
61036;SDS011;57313;47.040;15.498;2022-10-10T01:42:58;8.18;;;2.40;;
61036;SDS011;57313;47.040;15.498;2022-10-10T01:45:31;8.05;;;1.95;;
61036;SDS011;57313;47.040;15.498;2022-10-10T01:47:59;7.68;;;2.38;;
61036;SDS011;57313;47.040;15.498;2022-10-10T01:50:29;6.28;;;2.10;;
61036;SDS011;57313;47.040;15.498;2022-10-10T01:53:04;7.97;;;2.28;;
61036;SDS011;57313;47.040;15.498;2022-10-10T01:55:41;5.97;;;2.22;;
61036;SDS011;57313;47.040;15.498;2022-10-10T01:58:19;6.13;;;1.75;;
61036;SDS011;57313;47.040;15.498;2022-10-10T02:01:06;7.18;;;2.67;;
61036;SDS011;57313;47.040;15.498;2022-10-10T02:03:42;5.82;;;1.95;;
61036;SDS011;57313;47.040;15.498;2022-10-10T02:06:16;5.78;;;1.92;;
61036;SDS011;57313;47.040;15.498;2022-10-10T02:08:50;5.78;;;2.15;;
61036;SDS011;57313;47.040;15.498;2022-10-10T02:11:22;7.88;;;2.80;;
61036;SDS011;57313;47.040;15.498;2022-10-10T02:13:52;5.75;;;2.20;;
61036;SDS011;57313;47.040;15.498;2022-10-10T02:16:26;6.35;;;2.20;;
61036;SDS011;57313;47.040;15.498;2022-10-10T02:18:58;5.63;;;1.80;;
61036;SDS011;57313;47.040;15.498;2022-10-10T02:21:27;6.25;;;2.10;;
61036;SDS011;57313;47.040;15.498;2022-10-10T02:23:55;5.68;;;2.05;;
61036;SDS011;57313;47.040;15.498;2022-10-10T02:26:29;6.20;;;1.80;;
61036;SDS011;57313;47.040;15.498;2022-10-10T02:28:58;6.43;;;2.17;;
61036;SDS011;57313;47.040;15.498;2022-10-10T02:31:33;6.45;;;1.75;;
61036;SDS011;57313;47.040;15.498;2022-10-10T02:37:33;4.50;;;1.70;;
61036;SDS011;57313;47.040;15.498;2022-10-10T02:40:02;6.15;;;2.13;;
61036;SDS011;57313;47.040;15.498;2022-10-10T02:42:32;9.30;;;2.20;;
61036;SDS011;57313;47.040;15.498;2022-10-10T02:45:00;7.68;;;2.40;;
61036;SDS011;57313;47.040;15.498;2022-10-10T02:47:31;5.88;;;2.10;;
61036;SDS011;57313;47.040;15.498;2022-10-10T02:49:58;6.00;;;2.45;;
61036;SDS011;57313;47.040;15.498;2022-10-10T02:52:26;5.80;;;1.80;;
61036;SDS011;57313;47.040;15.498;2022-10-10T02:54:53;6.47;;;2.25;;
61036;SDS011;57313;47.040;15.498;2022-10-10T02:57:20;5.13;;;1.80;;
61036;SDS011;57313;47.040;15.498;2022-10-10T02:59:48;10.00;;;2.45;;
61036;SDS011;57313;47.040;15.498;2022-10-10T03:02:15;11.75;;;2.20;;
61036;SDS011;57313;47.040;15.498;2022-10-10T03:04:44;5.82;;;2.08;;
61036;SDS011;57313;47.040;15.498;2022-10-10T03:07:11;8.82;;;2.15;;
61036;SDS011;57313;47.040;15.498;2022-10-10T03:09:38;11.95;;;2.33;;
61036;SDS011;57313;47.040;15.498;2022-10-10T03:12:06;7.18;;;2.30;;
61036;SDS011;57313;47.040;15.498;2022-10-10T03:14:33;5.63;;;1.90;;
61036;SDS011;57313;47.040;15.498;2022-10-10T03:17:00;8.93;;;2.03;;
61036;SDS011;57313;47.040;15.498;2022-10-10T03:19:28;6.32;;;2.13;;
61036;SDS011;57313;47.040;15.498;2022-10-10T03:21:58;6.22;;;2.33;;
61036;SDS011;57313;47.040;15.498;2022-10-10T03:24:26;9.70;;;2.35;;
61036;SDS011;57313;47.040;15.498;2022-10-10T03:26:54;7.28;;;2.10;;
61036;SDS011;57313;47.040;15.498;2022-10-10T03:29:21;6.97;;;1.88;;
61036;SDS011;57313;47.040;15.498;2022-10-10T03:31:49;6.25;;;1.83;;
61036;SDS011;57313;47.040;15.498;2022-10-10T03:34:16;22.40;;;8.23;;
61036;SDS011;57313;47.040;15.498;2022-10-10T03:36:44;14.75;;;4.53;;
61036;SDS011;57313;47.040;15.498;2022-10-10T03:39:13;9.63;;;3.55;;
61036;SDS011;57313;47.040;15.498;2022-10-10T03:41:40;11.57;;;4.63;;
61036;SDS011;57313;47.040;15.498;2022-10-10T03:44:08;8.18;;;2.90;;
61036;SDS011;57313;47.040;15.498;2022-10-10T03:46:35;7.40;;;2.55;;
61036;SDS011;57313;47.040;15.498;2022-10-10T03:49:03;6.50;;;2.40;;
61036;SDS011;57313;47.040;15.498;2022-10-10T03:51:30;6.88;;;2.65;;
61036;SDS011;57313;47.040;15.498;2022-10-10T03:53:58;7.90;;;2.78;;
61036;SDS011;57313;47.040;15.498;2022-10-10T03:56:27;6.47;;;2.17;;
61036;SDS011;57313;47.040;15.498;2022-10-10T03:58:54;8.27;;;2.53;;
61036;SDS011;57313;47.040;15.498;2022-10-10T04:01:22;5.47;;;1.98;;
61036;SDS011;57313;47.040;15.498;2022-10-10T04:03:49;6.78;;;2.45;;
61036;SDS011;57313;47.040;15.498;2022-10-10T04:06:17;6.97;;;2.40;;
61036;SDS011;57313;47.040;15.498;2022-10-10T04:08:45;7.03;;;2.45;;
61036;SDS011;57313;47.040;15.498;2022-10-10T04:11:12;7.13;;;2.28;;
61036;SDS011;57313;47.040;15.498;2022-10-10T04:13:41;8.48;;;2.33;;
61036;SDS011;57313;47.040;15.498;2022-10-10T04:16:09;6.20;;;2.20;;
61036;SDS011;57313;47.040;15.498;2022-10-10T04:18:36;6.72;;;2.30;;
61036;SDS011;57313;47.040;15.498;2022-10-10T04:21:04;6.78;;;2.10;;
61036;SDS011;57313;47.040;15.498;2022-10-10T04:23:32;6.40;;;2.20;;
61036;SDS011;57313;47.040;15.498;2022-10-10T04:25:59;12.43;;;2.42;;
61036;SDS011;57313;47.040;15.498;2022-10-10T04:28:27;6.72;;;2.17;;
61036;SDS011;57313;47.040;15.498;2022-10-10T04:30:56;7.45;;;2.38;;
61036;SDS011;57313;47.040;15.498;2022-10-10T04:33:23;5.53;;;1.92;;
61036;SDS011;57313;47.040;15.498;2022-10-10T04:35:51;7.57;;;2.33;;
61036;SDS011;57313;47.040;15.498;2022-10-10T04:38:19;6.93;;;2.20;;
61036;SDS011;57313;47.040;15.498;2022-10-10T04:40:47;8.07;;;2.53;;
61036;SDS011;57313;47.040;15.498;2022-10-10T04:43:14;6.00;;;1.95;;
61036;SDS011;57313;47.040;15.498;2022-10-10T04:45:42;5.07;;;1.90;;
61036;SDS011;57313;47.040;15.498;2022-10-10T04:48:11;8.43;;;2.42;;
61036;SDS011;57313;47.040;15.498;2022-10-10T04:50:39;5.60;;;1.75;;
61036;SDS011;57313;47.040;15.498;2022-10-10T04:53:06;5.20;;;1.83;;
61036;SDS011;57313;47.040;15.498;2022-10-10T04:55:33;5.90;;;1.90;;
61036;SDS011;57313;47.040;15.498;2022-10-10T04:58:00;5.32;;;1.80;;
61036;SDS011;57313;47.040;15.498;2022-10-10T05:00:28;11.63;;;2.17;;
61036;SDS011;57313;47.040;15.498;2022-10-10T05:02:55;6.63;;;2.00;;
61036;SDS011;57313;47.040;15.498;2022-10-10T05:05:24;5.82;;;2.03;;
61036;SDS011;57313;47.040;15.498;2022-10-10T05:07:52;6.63;;;1.92;;
61036;SDS011;57313;47.040;15.498;2022-10-10T05:10:21;6.18;;;2.05;;
61036;SDS011;57313;47.040;15.498;2022-10-10T05:12:49;6.55;;;2.25;;
61036;SDS011;57313;47.040;15.498;2022-10-10T05:15:17;7.85;;;2.30;;
61036;SDS011;57313;47.040;15.498;2022-10-10T05:17:44;4.70;;;1.65;;
61036;SDS011;57313;47.040;15.498;2022-10-10T05:20:12;5.22;;;1.80;;
61036;SDS011;57313;47.040;15.498;2022-10-10T05:22:42;5.32;;;1.83;;
61036;SDS011;57313;47.040;15.498;2022-10-10T05:25:10;5.43;;;1.90;;
61036;SDS011;57313;47.040;15.498;2022-10-10T05:27:38;4.72;;;1.60;;
61036;SDS011;57313;47.040;15.498;2022-10-10T05:30:06;5.38;;;1.77;;
61036;SDS011;57313;47.040;15.498;2022-10-10T05:32:34;6.97;;;1.95;;
61036;SDS011;57313;47.040;15.498;2022-10-10T05:35:02;6.90;;;1.95;;
61036;SDS011;57313;47.040;15.498;2022-10-10T05:37:30;10.35;;;2.10;;
61036;SDS011;57313;47.040;15.498;2022-10-10T05:40:00;11.32;;;2.33;;
61036;SDS011;57313;47.040;15.498;2022-10-10T05:42:27;8.10;;;2.10;;
61036;SDS011;57313;47.040;15.498;2022-10-10T05:44:54;5.90;;;2.03;;
61036;SDS011;57313;47.040;15.498;2022-10-10T05:47:22;10.90;;;2.72;;
61036;SDS011;57313;47.040;15.498;2022-10-10T05:49:54;5.93;;;2.08;;
61036;SDS011;57313;47.040;15.498;2022-10-10T05:52:21;9.45;;;2.28;;
61036;SDS011;57313;47.040;15.498;2022-10-10T05:54:49;8.73;;;2.53;;
61036;SDS011;57313;47.040;15.498;2022-10-10T05:57:18;7.07;;;2.53;;
61036;SDS011;57313;47.040;15.498;2022-10-10T05:59:45;7.53;;;2.85;;
61036;SDS011;57313;47.040;15.498;2022-10-10T06:02:12;6.80;;;2.47;;
61036;SDS011;57313;47.040;15.498;2022-10-10T06:04:40;9.88;;;2.40;;
61036;SDS011;57313;47.040;15.498;2022-10-10T06:07:08;5.95;;;1.95;;
61036;SDS011;57313;47.040;15.498;2022-10-10T06:09:35;6.05;;;2.20;;
61036;SDS011;57313;47.040;15.498;2022-10-10T06:12:02;5.28;;;1.85;;
61036;SDS011;57313;47.040;15.498;2022-10-10T06:14:31;6.63;;;1.95;;
61036;SDS011;57313;47.040;15.498;2022-10-10T06:16:59;5.05;;;1.80;;
61036;SDS011;57313;47.040;15.498;2022-10-10T06:19:26;5.75;;;2.05;;
61036;SDS011;57313;47.040;15.498;2022-10-10T06:21:53;5.95;;;2.10;;
61036;SDS011;57313;47.040;15.498;2022-10-10T06:24:20;6.28;;;2.30;;
61036;SDS011;57313;47.040;15.498;2022-10-10T06:26:47;6.35;;;2.22;;
61036;SDS011;57313;47.040;15.498;2022-10-10T06:29:14;7.88;;;2.40;;
61036;SDS011;57313;47.040;15.498;2022-10-10T06:31:44;7.10;;;2.15;;
61036;SDS011;57313;47.040;15.498;2022-10-10T06:34:12;7.95;;;2.40;;
61036;SDS011;57313;47.040;15.498;2022-10-10T06:36:39;6.53;;;2.30;;
61036;SDS011;57313;47.040;15.498;2022-10-10T06:39:07;7.80;;;2.08;;
61036;SDS011;57313;47.040;15.498;2022-10-10T06:41:34;5.78;;;2.08;;
61036;SDS011;57313;47.040;15.498;2022-10-10T06:44:02;6.65;;;2.15;;
61036;SDS011;57313;47.040;15.498;2022-10-10T06:46:29;7.10;;;2.25;;
61036;SDS011;57313;47.040;15.498;2022-10-10T06:48:59;6.50;;;2.20;;
61036;SDS011;57313;47.040;15.498;2022-10-10T06:51:27;6.25;;;2.20;;
61036;SDS011;57313;47.040;15.498;2022-10-10T06:53:55;6.57;;;2.42;;
61036;SDS011;57313;47.040;15.498;2022-10-10T06:56:24;7.30;;;2.55;;
61036;SDS011;57313;47.040;15.498;2022-10-10T06:58:53;9.93;;;2.50;;
61036;SDS011;57313;47.040;15.498;2022-10-10T07:01:22;8.10;;;2.63;;
61036;SDS011;57313;47.040;15.498;2022-10-10T07:03:51;6.70;;;2.42;;
61036;SDS011;57313;47.040;15.498;2022-10-10T07:06:22;9.27;;;2.85;;
61036;SDS011;57313;47.040;15.498;2022-10-10T07:08:49;6.32;;;2.35;;
61036;SDS011;57313;47.040;15.498;2022-10-10T07:11:17;9.82;;;2.72;;
61036;SDS011;57313;47.040;15.498;2022-10-10T07:13:44;11.07;;;2.97;;
61036;SDS011;57313;47.040;15.498;2022-10-10T07:16:12;9.60;;;3.05;;
61036;SDS011;57313;47.040;15.498;2022-10-10T07:18:40;7.32;;;2.75;;
61036;SDS011;57313;47.040;15.498;2022-10-10T07:21:08;10.93;;;3.20;;
61036;SDS011;57313;47.040;15.498;2022-10-10T07:23:38;10.45;;;3.50;;
61036;SDS011;57313;47.040;15.498;2022-10-10T07:26:06;10.18;;;4.32;;
61036;SDS011;57313;47.040;15.498;2022-10-10T07:28:36;9.95;;;3.90;;
61036;SDS011;57313;47.040;15.498;2022-10-10T07:31:05;9.93;;;3.90;;
61036;SDS011;57313;47.040;15.498;2022-10-10T07:33:33;11.90;;;3.90;;
61036;SDS011;57313;47.040;15.498;2022-10-10T07:36:03;8.55;;;3.72;;
61036;SDS011;57313;47.040;15.498;2022-10-10T07:38:30;10.10;;;3.85;;
61036;SDS011;57313;47.040;15.498;2022-10-10T07:41:03;11.43;;;3.80;;
61036;SDS011;57313;47.040;15.498;2022-10-10T07:43:31;9.55;;;4.05;;
61036;SDS011;57313;47.040;15.498;2022-10-10T07:45:58;11.38;;;3.63;;
61036;SDS011;57313;47.040;15.498;2022-10-10T07:48:31;10.45;;;4.30;;
61036;SDS011;57313;47.040;15.498;2022-10-10T07:50:59;10.95;;;4.30;;
61036;SDS011;57313;47.040;15.498;2022-10-10T07:53:26;9.27;;;3.80;;
61036;SDS011;57313;47.040;15.498;2022-10-10T07:55:54;9.05;;;3.92;;
61036;SDS011;57313;47.040;15.498;2022-10-10T07:58:23;12.43;;;4.43;;
61036;SDS011;57313;47.040;15.498;2022-10-10T08:00:50;8.63;;;3.85;;
61036;SDS011;57313;47.040;15.498;2022-10-10T08:03:28;12.15;;;4.10;;
61036;SDS011;57313;47.040;15.498;2022-10-10T08:05:55;10.93;;;3.75;;
61036;SDS011;57313;47.040;15.498;2022-10-10T08:08:24;11.95;;;4.38;;
61036;SDS011;57313;47.040;15.498;2022-10-10T08:10:52;11.75;;;4.22;;
61036;SDS011;57313;47.040;15.498;2022-10-10T08:13:19;9.80;;;3.35;;
61036;SDS011;57313;47.040;15.498;2022-10-10T08:15:50;12.35;;;3.88;;
61036;SDS011;57313;47.040;15.498;2022-10-10T08:18:18;9.82;;;3.67;;
61036;SDS011;57313;47.040;15.498;2022-10-10T08:20:56;11.10;;;3.95;;
61036;SDS011;57313;47.040;15.498;2022-10-10T08:23:24;8.80;;;3.53;;
61036;SDS011;57313;47.040;15.498;2022-10-10T08:25:52;10.57;;;3.60;;
61036;SDS011;57313;47.040;15.498;2022-10-10T08:28:19;11.93;;;3.63;;
61036;SDS011;57313;47.040;15.498;2022-10-10T08:30:47;9.30;;;3.20;;
61036;SDS011;57313;47.040;15.498;2022-10-10T08:33:17;10.90;;;3.65;;
61036;SDS011;57313;47.040;15.498;2022-10-10T08:35:44;9.60;;;3.58;;
61036;SDS011;57313;47.040;15.498;2022-10-10T08:38:12;7.78;;;3.08;;
61036;SDS011;57313;47.040;15.498;2022-10-10T08:40:43;8.45;;;3.15;;
61036;SDS011;57313;47.040;15.498;2022-10-10T08:43:16;9.73;;;3.15;;
61036;SDS011;57313;47.040;15.498;2022-10-10T08:45:47;7.75;;;3.28;;
61036;SDS011;57313;47.040;15.498;2022-10-10T08:48:19;11.35;;;3.47;;
61036;SDS011;57313;47.040;15.498;2022-10-10T08:50:50;10.57;;;3.33;;
61036;SDS011;57313;47.040;15.498;2022-10-10T08:53:23;8.15;;;3.20;;
61036;SDS011;57313;47.040;15.498;2022-10-10T08:55:54;10.02;;;3.40;;
61036;SDS011;57313;47.040;15.498;2022-10-10T08:58:23;8.40;;;3.00;;
61036;SDS011;57313;47.040;15.498;2022-10-10T09:01:00;10.23;;;3.42;;
61036;SDS011;57313;47.040;15.498;2022-10-10T09:03:35;11.50;;;4.00;;
61036;SDS011;57313;47.040;15.498;2022-10-10T09:06:17;7.63;;;3.22;;
61036;SDS011;57313;47.040;15.498;2022-10-10T09:08:57;7.35;;;3.05;;
61036;SDS011;57313;47.040;15.498;2022-10-10T09:11:37;9.93;;;3.20;;
61036;SDS011;57313;47.040;15.498;2022-10-10T09:14:16;9.40;;;3.72;;
61036;SDS011;57313;47.040;15.498;2022-10-10T09:16:52;9.43;;;3.10;;
61036;SDS011;57313;47.040;15.498;2022-10-10T09:19:31;13.57;;;2.92;;
61036;SDS011;57313;47.040;15.498;2022-10-10T09:22:10;8.20;;;3.00;;
61036;SDS011;57313;47.040;15.498;2022-10-10T09:24:41;11.48;;;2.90;;
61036;SDS011;57313;47.040;15.498;2022-10-10T09:27:14;7.70;;;3.17;;
61036;SDS011;57313;47.040;15.498;2022-10-10T09:29:46;6.97;;;2.45;;
61036;SDS011;57313;47.040;15.498;2022-10-10T09:32:19;7.82;;;2.75;;
61036;SDS011;57313;47.040;15.498;2022-10-10T09:34:53;7.85;;;2.88;;
61036;SDS011;57313;47.040;15.498;2022-10-10T09:37:28;8.20;;;3.10;;
61036;SDS011;57313;47.040;15.498;2022-10-10T09:40:15;9.90;;;2.95;;
61036;SDS011;57313;47.040;15.498;2022-10-10T09:42:48;8.25;;;3.03;;
61036;SDS011;57313;47.040;15.498;2022-10-10T09:45:18;8.82;;;3.28;;
61036;SDS011;57313;47.040;15.498;2022-10-10T09:47:50;7.82;;;2.90;;
61036;SDS011;57313;47.040;15.498;2022-10-10T09:50:21;8.20;;;2.88;;
61036;SDS011;57313;47.040;15.498;2022-10-10T09:52:49;7.70;;;2.15;;
61036;SDS011;57313;47.040;15.498;2022-10-10T09:55:20;7.57;;;2.90;;
61036;SDS011;57313;47.040;15.498;2022-10-10T09:57:51;11.30;;;3.53;;
61036;SDS011;57313;47.040;15.498;2022-10-10T10:00:27;7.53;;;2.88;;
61036;SDS011;57313;47.040;15.498;2022-10-10T10:03:07;8.88;;;3.00;;
61036;SDS011;57313;47.040;15.498;2022-10-10T10:05:39;10.00;;;2.70;;
61036;SDS011;57313;47.040;15.498;2022-10-10T10:10:52;7.93;;;2.85;;
61036;SDS011;57313;47.040;15.498;2022-10-10T10:13:20;7.07;;;2.30;;
61036;SDS011;57313;47.040;15.498;2022-10-10T10:15:54;8.90;;;2.28;;
61036;SDS011;57313;47.040;15.498;2022-10-10T10:18:27;7.30;;;2.80;;
61036;SDS011;57313;47.040;15.498;2022-10-10T10:21:10;8.25;;;2.72;;
61036;SDS011;57313;47.040;15.498;2022-10-10T10:23:43;8.43;;;2.97;;
61036;SDS011;57313;47.040;15.498;2022-10-10T10:26:19;8.35;;;2.85;;
61036;SDS011;57313;47.040;15.498;2022-10-10T10:28:48;6.38;;;2.58;;
61036;SDS011;57313;47.040;15.498;2022-10-10T10:31:28;12.05;;;2.95;;
61036;SDS011;57313;47.040;15.498;2022-10-10T10:34:30;8.23;;;2.33;;
61036;SDS011;57313;47.040;15.498;2022-10-10T10:37:16;9.13;;;2.72;;
61036;SDS011;57313;47.040;15.498;2022-10-10T10:42:36;7.03;;;2.80;;
61036;SDS011;57313;47.040;15.498;2022-10-10T10:45:14;6.95;;;2.40;;
61036;SDS011;57313;47.040;15.498;2022-10-10T10:47:44;8.85;;;2.85;;
61036;SDS011;57313;47.040;15.498;2022-10-10T10:50:24;12.57;;;3.47;;
61036;SDS011;57313;47.040;15.498;2022-10-10T10:53:03;7.57;;;2.60;;
61036;SDS011;57313;47.040;15.498;2022-10-10T10:55:41;7.82;;;2.85;;
61036;SDS011;57313;47.040;15.498;2022-10-10T10:58:36;9.27;;;3.10;;
61036;SDS011;57313;47.040;15.498;2022-10-10T11:01:43;7.82;;;2.50;;
61036;SDS011;57313;47.040;15.498;2022-10-10T11:04:26;7.22;;;2.55;;
61036;SDS011;57313;47.040;15.498;2022-10-10T11:07:36;7.10;;;2.50;;
61036;SDS011;57313;47.040;15.498;2022-10-10T11:10:15;6.38;;;2.35;;
61036;SDS011;57313;47.040;15.498;2022-10-10T11:12:53;8.73;;;2.75;;
61036;SDS011;57313;47.040;15.498;2022-10-10T11:15:30;9.57;;;2.83;;
61036;SDS011;57313;47.040;15.498;2022-10-10T11:18:24;8.13;;;2.60;;
61036;SDS011;57313;47.040;15.498;2022-10-10T11:20:57;6.32;;;2.05;;
61036;SDS011;57313;47.040;15.498;2022-10-10T11:23:29;7.65;;;2.60;;
61036;SDS011;57313;47.040;15.498;2022-10-10T11:26:02;9.55;;;2.50;;
61036;SDS011;57313;47.040;15.498;2022-10-10T11:28:34;6.43;;;2.20;;
61036;SDS011;57313;47.040;15.498;2022-10-10T11:31:07;7.45;;;2.47;;
61036;SDS011;57313;47.040;15.498;2022-10-10T11:33:41;6.70;;;2.40;;
61036;SDS011;57313;47.040;15.498;2022-10-10T11:36:12;8.00;;;2.67;;
61036;SDS011;57313;47.040;15.498;2022-10-10T11:38:43;9.02;;;2.45;;
61036;SDS011;57313;47.040;15.498;2022-10-10T11:41:16;8.55;;;2.88;;
61036;SDS011;57313;47.040;15.498;2022-10-10T11:43:49;8.45;;;2.67;;
61036;SDS011;57313;47.040;15.498;2022-10-10T11:46:23;8.90;;;3.03;;
61036;SDS011;57313;47.040;15.498;2022-10-10T11:48:55;11.98;;;2.75;;
61036;SDS011;57313;47.040;15.498;2022-10-10T11:51:31;8.63;;;3.20;;
61036;SDS011;57313;47.040;15.498;2022-10-10T11:54:05;6.55;;;2.58;;
61036;SDS011;57313;47.040;15.498;2022-10-10T11:56:43;10.73;;;2.67;;
61036;SDS011;57313;47.040;15.498;2022-10-10T11:59:14;9.35;;;3.30;;
61036;SDS011;57313;47.040;15.498;2022-10-10T12:01:47;8.15;;;2.67;;
61036;SDS011;57313;47.040;15.498;2022-10-10T12:04:17;10.70;;;3.88;;
61036;SDS011;57313;47.040;15.498;2022-10-10T12:06:45;7.72;;;3.00;;
61036;SDS011;57313;47.040;15.498;2022-10-10T12:09:17;8.10;;;3.10;;
61036;SDS011;57313;47.040;15.498;2022-10-10T12:11:52;10.07;;;3.15;;
61036;SDS011;57313;47.040;15.498;2022-10-10T12:14:24;8.60;;;3.35;;
61036;SDS011;57313;47.040;15.498;2022-10-10T12:16:54;9.52;;;3.53;;
61036;SDS011;57313;47.040;15.498;2022-10-10T12:19:22;9.35;;;3.47;;
61036;SDS011;57313;47.040;15.498;2022-10-10T12:21:52;8.70;;;3.35;;
61036;SDS011;57313;47.040;15.498;2022-10-10T12:24:22;8.00;;;3.50;;
61036;SDS011;57313;47.040;15.498;2022-10-10T12:32:49;8.43;;;3.05;;
61036;SDS011;57313;47.040;15.498;2022-10-10T12:35:30;8.10;;;3.00;;
61036;SDS011;57313;47.040;15.498;2022-10-10T12:38:10;8.65;;;3.28;;
61036;SDS011;57313;47.040;15.498;2022-10-10T12:41:07;7.85;;;3.33;;
61036;SDS011;57313;47.040;15.498;2022-10-10T12:43:41;11.10;;;3.50;;
61036;SDS011;57313;47.040;15.498;2022-10-10T12:46:18;8.23;;;3.22;;
61036;SDS011;57313;47.040;15.498;2022-10-10T12:49:03;8.45;;;3.22;;
61036;SDS011;57313;47.040;15.498;2022-10-10T12:51:41;10.40;;;3.22;;
61036;SDS011;57313;47.040;15.498;2022-10-10T12:54:19;12.38;;;3.78;;
61036;SDS011;57313;47.040;15.498;2022-10-10T12:56:50;8.15;;;3.33;;
61036;SDS011;57313;47.040;15.498;2022-10-10T12:59:25;9.05;;;3.28;;
61036;SDS011;57313;47.040;15.498;2022-10-10T13:01:55;9.07;;;4.10;;
61036;SDS011;57313;47.040;15.498;2022-10-10T13:04:24;14.88;;;3.60;;
61036;SDS011;57313;47.040;15.498;2022-10-10T13:06:52;9.27;;;3.60;;
61036;SDS011;57313;47.040;15.498;2022-10-10T13:09:22;8.98;;;3.58;;
61036;SDS011;57313;47.040;15.498;2022-10-10T13:12:00;10.75;;;3.42;;
61036;SDS011;57313;47.040;15.498;2022-10-10T13:14:36;8.15;;;3.13;;
61036;SDS011;57313;47.040;15.498;2022-10-10T13:17:19;8.63;;;3.45;;
61036;SDS011;57313;47.040;15.498;2022-10-10T13:19:49;10.75;;;3.72;;
61036;SDS011;57313;47.040;15.498;2022-10-10T13:22:16;10.50;;;3.70;;
61036;SDS011;57313;47.040;15.498;2022-10-10T13:24:45;9.85;;;3.83;;
61036;SDS011;57313;47.040;15.498;2022-10-10T13:27:14;10.68;;;3.70;;
61036;SDS011;57313;47.040;15.498;2022-10-10T13:29:43;8.02;;;3.38;;
61036;SDS011;57313;47.040;15.498;2022-10-10T13:32:12;8.82;;;3.55;;
61036;SDS011;57313;47.040;15.498;2022-10-10T13:34:45;10.50;;;4.22;;
61036;SDS011;57313;47.040;15.498;2022-10-10T13:37:16;9.73;;;4.03;;
61036;SDS011;57313;47.040;15.498;2022-10-10T13:39:44;9.98;;;3.50;;
61036;SDS011;57313;47.040;15.498;2022-10-10T13:42:25;10.13;;;3.55;;
61036;SDS011;57313;47.040;15.498;2022-10-10T13:44:58;10.38;;;4.13;;
61036;SDS011;57313;47.040;15.498;2022-10-10T13:47:38;10.05;;;3.92;;
61036;SDS011;57313;47.040;15.498;2022-10-10T13:50:18;10.55;;;4.43;;
61036;SDS011;57313;47.040;15.498;2022-10-10T13:55:49;10.70;;;4.38;;
61036;SDS011;57313;47.040;15.498;2022-10-10T13:58:23;8.70;;;3.67;;
61036;SDS011;57313;47.040;15.498;2022-10-10T14:00:54;9.82;;;4.45;;
61036;SDS011;57313;47.040;15.498;2022-10-10T14:03:22;10.48;;;3.83;;
61036;SDS011;57313;47.040;15.498;2022-10-10T14:05:54;9.88;;;3.78;;
61036;SDS011;57313;47.040;15.498;2022-10-10T14:08:23;10.00;;;4.13;;
61036;SDS011;57313;47.040;15.498;2022-10-10T14:10:56;11.63;;;4.28;;
61036;SDS011;57313;47.040;15.498;2022-10-10T14:13:27;11.37;;;4.37;;
61036;SDS011;57313;47.040;15.498;2022-10-10T14:16:08;10.65;;;4.18;;
61036;SDS011;57313;47.040;15.498;2022-10-10T14:18:36;14.93;;;4.63;;
61036;SDS011;57313;47.040;15.498;2022-10-10T14:21:06;11.35;;;3.92;;
61036;SDS011;57313;47.040;15.498;2022-10-10T14:23:33;9.77;;;4.10;;
61036;SDS011;57313;47.040;15.498;2022-10-10T14:26:02;10.85;;;4.57;;
61036;SDS011;57313;47.040;15.498;2022-10-10T14:28:31;8.85;;;3.83;;
61036;SDS011;57313;47.040;15.498;2022-10-10T14:30:59;11.15;;;4.07;;
61036;SDS011;57313;47.040;15.498;2022-10-10T14:33:28;11.13;;;4.63;;
61036;SDS011;57313;47.040;15.498;2022-10-10T14:35:55;10.07;;;4.55;;
61036;SDS011;57313;47.040;15.498;2022-10-10T14:38:26;8.90;;;4.07;;
61036;SDS011;57313;47.040;15.498;2022-10-10T14:40:54;11.05;;;4.47;;
61036;SDS011;57313;47.040;15.498;2022-10-10T14:43:21;10.38;;;4.10;;
61036;SDS011;57313;47.040;15.498;2022-10-10T14:45:49;10.40;;;4.22;;
61036;SDS011;57313;47.040;15.498;2022-10-10T14:48:19;10.73;;;4.70;;
61036;SDS011;57313;47.040;15.498;2022-10-10T14:50:46;9.63;;;4.32;;
61036;SDS011;57313;47.040;15.498;2022-10-10T14:53:14;9.80;;;4.38;;
61036;SDS011;57313;47.040;15.498;2022-10-10T14:55:43;11.02;;;4.13;;
61036;SDS011;57313;47.040;15.498;2022-10-10T14:58:12;10.63;;;4.00;;
61036;SDS011;57313;47.040;15.498;2022-10-10T15:00:41;10.90;;;4.15;;
61036;SDS011;57313;47.040;15.498;2022-10-10T15:03:08;9.70;;;4.18;;
61036;SDS011;57313;47.040;15.498;2022-10-10T15:05:36;11.23;;;4.20;;
61036;SDS011;57313;47.040;15.498;2022-10-10T15:08:03;11.13;;;4.32;;
61036;SDS011;57313;47.040;15.498;2022-10-10T15:10:31;9.43;;;4.00;;
61036;SDS011;57313;47.040;15.498;2022-10-10T15:13:03;11.98;;;4.22;;
61036;SDS011;57313;47.040;15.498;2022-10-10T15:15:31;9.93;;;4.13;;